sensor_id;sensor_type;location;lat;lon;timestamp;P1;durP1;ratioP1;P2;durP2;ratioP2
79338;SDS011;74181;41.704;44.786;2024-03-17T00:00:32;6.50;;;3.00;;
79338;SDS011;74181;41.704;44.786;2024-03-17T00:02:58;6.97;;;3.17;;
79338;SDS011;74181;41.704;44.786;2024-03-17T00:05:24;8.05;;;3.10;;
79338;SDS011;74181;41.704;44.786;2024-03-17T00:07:50;8.80;;;3.20;;
79338;SDS011;74181;41.704;44.786;2024-03-17T00:10:16;6.50;;;2.80;;
79338;SDS011;74181;41.704;44.786;2024-03-17T00:12:43;7.37;;;3.10;;
79338;SDS011;74181;41.704;44.786;2024-03-17T00:15:09;6.85;;;3.22;;
79338;SDS011;74181;41.704;44.786;2024-03-17T00:17:36;8.40;;;3.25;;
79338;SDS011;74181;41.704;44.786;2024-03-17T00:20:02;6.75;;;3.08;;
79338;SDS011;74181;41.704;44.786;2024-03-17T00:22:35;6.45;;;3.00;;
79338;SDS011;74181;41.704;44.786;2024-03-17T00:25:05;7.90;;;3.20;;
79338;SDS011;74181;41.704;44.786;2024-03-17T00:27:32;6.38;;;2.90;;
79338;SDS011;74181;41.704;44.786;2024-03-17T00:29:59;7.38;;;3.70;;
79338;SDS011;74181;41.704;44.786;2024-03-17T00:32:25;6.95;;;3.20;;
79338;SDS011;74181;41.704;44.786;2024-03-17T00:34:51;8.30;;;3.10;;
79338;SDS011;74181;41.704;44.786;2024-03-17T00:37:17;6.17;;;3.23;;
79338;SDS011;74181;41.704;44.786;2024-03-17T00:39:44;6.78;;;3.30;;
79338;SDS011;74181;41.704;44.786;2024-03-17T00:42:10;7.40;;;3.10;;
79338;SDS011;74181;41.704;44.786;2024-03-17T00:44:36;5.72;;;2.85;;
79338;SDS011;74181;41.704;44.786;2024-03-17T00:47:02;6.95;;;3.15;;
79338;SDS011;74181;41.704;44.786;2024-03-17T00:49:28;6.17;;;2.90;;
79338;SDS011;74181;41.704;44.786;2024-03-17T00:51:54;7.40;;;2.95;;
79338;SDS011;74181;41.704;44.786;2024-03-17T00:54:20;6.45;;;2.95;;
79338;SDS011;74181;41.704;44.786;2024-03-17T00:56:46;6.20;;;2.80;;
79338;SDS011;74181;41.704;44.786;2024-03-17T00:59:12;7.63;;;3.10;;
79338;SDS011;74181;41.704;44.786;2024-03-17T01:01:38;6.77;;;3.07;;
79338;SDS011;74181;41.704;44.786;2024-03-17T01:04:04;6.72;;;2.80;;
79338;SDS011;74181;41.704;44.786;2024-03-17T01:06:30;6.80;;;3.10;;
79338;SDS011;74181;41.704;44.786;2024-03-17T01:08:57;6.03;;;2.80;;
79338;SDS011;74181;41.704;44.786;2024-03-17T01:11:23;5.95;;;2.80;;
79338;SDS011;74181;41.704;44.786;2024-03-17T01:13:50;7.43;;;3.10;;
79338;SDS011;74181;41.704;44.786;2024-03-17T01:16:17;6.47;;;3.08;;
79338;SDS011;74181;41.704;44.786;2024-03-17T01:18:43;5.95;;;2.75;;
79338;SDS011;74181;41.704;44.786;2024-03-17T01:21:11;6.88;;;3.40;;
79338;SDS011;74181;41.704;44.786;2024-03-17T01:23:37;6.22;;;2.80;;
79338;SDS011;74181;41.704;44.786;2024-03-17T01:26:03;6.30;;;2.60;;
79338;SDS011;74181;41.704;44.786;2024-03-17T01:28:30;6.55;;;2.80;;
79338;SDS011;74181;41.704;44.786;2024-03-17T01:30:56;5.72;;;2.80;;
79338;SDS011;74181;41.704;44.786;2024-03-17T01:33:22;7.90;;;3.40;;
79338;SDS011;74181;41.704;44.786;2024-03-17T01:35:48;6.63;;;2.90;;
79338;SDS011;74181;41.704;44.786;2024-03-17T01:38:14;7.50;;;2.90;;
79338;SDS011;74181;41.704;44.786;2024-03-17T01:40:40;6.95;;;3.03;;
79338;SDS011;74181;41.704;44.786;2024-03-17T01:43:09;7.18;;;3.13;;
79338;SDS011;74181;41.704;44.786;2024-03-17T01:45:37;7.03;;;3.20;;
79338;SDS011;74181;41.704;44.786;2024-03-17T01:48:03;7.63;;;3.08;;
79338;SDS011;74181;41.704;44.786;2024-03-17T01:50:36;7.13;;;2.93;;
79338;SDS011;74181;41.704;44.786;2024-03-17T01:53:04;6.70;;;2.90;;
79338;SDS011;74181;41.704;44.786;2024-03-17T01:55:32;6.20;;;2.83;;
79338;SDS011;74181;41.704;44.786;2024-03-17T01:57:59;6.70;;;3.20;;
79338;SDS011;74181;41.704;44.786;2024-03-17T02:00:25;6.05;;;2.88;;
79338;SDS011;74181;41.704;44.786;2024-03-17T02:02:52;5.83;;;2.53;;
79338;SDS011;74181;41.704;44.786;2024-03-17T02:05:18;6.15;;;2.53;;
79338;SDS011;74181;41.704;44.786;2024-03-17T02:07:44;7.25;;;2.72;;
79338;SDS011;74181;41.704;44.786;2024-03-17T02:10:11;6.90;;;2.95;;
79338;SDS011;74181;41.704;44.786;2024-03-17T02:12:38;6.07;;;2.70;;
79338;SDS011;74181;41.704;44.786;2024-03-17T02:15:05;5.93;;;2.77;;
79338;SDS011;74181;41.704;44.786;2024-03-17T02:17:32;6.18;;;2.72;;
79338;SDS011;74181;41.704;44.786;2024-03-17T02:20:00;5.82;;;2.63;;
79338;SDS011;74181;41.704;44.786;2024-03-17T02:22:28;5.97;;;2.80;;
79338;SDS011;74181;41.704;44.786;2024-03-17T02:24:54;6.68;;;2.92;;
79338;SDS011;74181;41.704;44.786;2024-03-17T02:27:20;5.90;;;2.77;;
79338;SDS011;74181;41.704;44.786;2024-03-17T02:29:46;5.53;;;2.63;;
79338;SDS011;74181;41.704;44.786;2024-03-17T02:32:13;6.45;;;2.92;;
79338;SDS011;74181;41.704;44.786;2024-03-17T02:34:39;6.03;;;2.60;;
79338;SDS011;74181;41.704;44.786;2024-03-17T02:37:06;5.93;;;2.83;;
79338;SDS011;74181;41.704;44.786;2024-03-17T02:39:33;5.97;;;2.70;;
79338;SDS011;74181;41.704;44.786;2024-03-17T02:42:01;6.20;;;2.83;;
79338;SDS011;74181;41.704;44.786;2024-03-17T02:44:31;6.97;;;3.08;;
79338;SDS011;74181;41.704;44.786;2024-03-17T02:46:58;6.32;;;2.80;;
79338;SDS011;74181;41.704;44.786;2024-03-17T02:49:25;5.78;;;2.60;;
79338;SDS011;74181;41.704;44.786;2024-03-17T02:52:10;5.33;;;2.50;;
79338;SDS011;74181;41.704;44.786;2024-03-17T02:54:37;5.43;;;2.83;;
79338;SDS011;74181;41.704;44.786;2024-03-17T02:57:04;6.60;;;2.97;;
79338;SDS011;74181;41.704;44.786;2024-03-17T02:59:32;7.22;;;2.90;;
79338;SDS011;74181;41.704;44.786;2024-03-17T03:01:59;6.43;;;2.83;;
79338;SDS011;74181;41.704;44.786;2024-03-17T03:04:25;6.10;;;2.70;;
79338;SDS011;74181;41.704;44.786;2024-03-17T03:06:52;6.68;;;2.85;;
79338;SDS011;74181;41.704;44.786;2024-03-17T03:09:18;6.88;;;2.97;;
79338;SDS011;74181;41.704;44.786;2024-03-17T03:11:58;7.53;;;3.25;;
79338;SDS011;74181;41.704;44.786;2024-03-17T03:14:25;6.28;;;2.80;;
79338;SDS011;74181;41.704;44.786;2024-03-17T03:16:52;5.47;;;2.53;;
79338;SDS011;74181;41.704;44.786;2024-03-17T03:19:18;8.50;;;2.78;;
79338;SDS011;74181;41.704;44.786;2024-03-17T03:21:45;6.03;;;2.72;;
79338;SDS011;74181;41.704;44.786;2024-03-17T03:24:11;6.63;;;2.72;;
79338;SDS011;74181;41.704;44.786;2024-03-17T03:26:39;7.40;;;2.85;;
79338;SDS011;74181;41.704;44.786;2024-03-17T03:29:05;6.27;;;3.07;;
79338;SDS011;74181;41.704;44.786;2024-03-17T03:31:32;7.85;;;3.10;;
79338;SDS011;74181;41.704;44.786;2024-03-17T03:33:58;7.20;;;3.00;;
79338;SDS011;74181;41.704;44.786;2024-03-17T03:36:27;6.80;;;3.00;;
79338;SDS011;74181;41.704;44.786;2024-03-17T03:38:53;6.00;;;2.90;;
79338;SDS011;74181;41.704;44.786;2024-03-17T03:41:19;8.73;;;3.47;;
79338;SDS011;74181;41.704;44.786;2024-03-17T03:43:45;7.43;;;3.22;;
79338;SDS011;74181;41.704;44.786;2024-03-17T03:46:13;7.07;;;3.20;;
79338;SDS011;74181;41.704;44.786;2024-03-17T03:48:39;5.90;;;2.85;;
79338;SDS011;74181;41.704;44.786;2024-03-17T03:51:05;6.60;;;2.80;;
79338;SDS011;74181;41.704;44.786;2024-03-17T03:53:35;5.60;;;2.90;;
79338;SDS011;74181;41.704;44.786;2024-03-17T03:56:03;7.28;;;2.80;;
79338;SDS011;74181;41.704;44.786;2024-03-17T03:58:32;6.28;;;2.53;;
79338;SDS011;74181;41.704;44.786;2024-03-17T04:01:05;5.88;;;2.63;;
79338;SDS011;74181;41.704;44.786;2024-03-17T04:03:35;5.15;;;2.20;;
79338;SDS011;74181;41.704;44.786;2024-03-17T04:06:06;7.63;;;2.87;;
79338;SDS011;74181;41.704;44.786;2024-03-17T04:08:34;5.20;;;2.25;;
79338;SDS011;74181;41.704;44.786;2024-03-17T04:11:00;6.25;;;2.40;;
79338;SDS011;74181;41.704;44.786;2024-03-17T04:13:27;5.35;;;2.65;;
79338;SDS011;74181;41.704;44.786;2024-03-17T04:15:57;6.10;;;2.70;;
79338;SDS011;74181;41.704;44.786;2024-03-17T04:18:27;6.90;;;2.87;;
79338;SDS011;74181;41.704;44.786;2024-03-17T04:20:57;7.25;;;3.08;;
79338;SDS011;74181;41.704;44.786;2024-03-17T04:23:24;6.35;;;3.10;;
79338;SDS011;74181;41.704;44.786;2024-03-17T04:25:51;6.05;;;2.88;;
79338;SDS011;74181;41.704;44.786;2024-03-17T04:28:18;8.00;;;3.80;;
79338;SDS011;74181;41.704;44.786;2024-03-17T04:30:44;8.53;;;6.47;;
79338;SDS011;74181;41.704;44.786;2024-03-17T04:33:14;7.20;;;3.72;;
79338;SDS011;74181;41.704;44.786;2024-03-17T04:35:42;5.38;;;2.33;;
79338;SDS011;74181;41.704;44.786;2024-03-17T04:38:08;6.13;;;2.60;;
79338;SDS011;74181;41.704;44.786;2024-03-17T04:40:39;8.50;;;3.20;;
79338;SDS011;74181;41.704;44.786;2024-03-17T04:43:06;6.27;;;2.90;;
79338;SDS011;74181;41.704;44.786;2024-03-17T04:45:32;7.60;;;3.40;;
79338;SDS011;74181;41.704;44.786;2024-03-17T04:47:58;7.95;;;3.20;;
79338;SDS011;74181;41.704;44.786;2024-03-17T04:50:24;6.88;;;3.22;;
79338;SDS011;74181;41.704;44.786;2024-03-17T04:52:52;7.63;;;4.63;;
79338;SDS011;74181;41.704;44.786;2024-03-17T04:55:18;8.33;;;7.47;;
79338;SDS011;74181;41.704;44.786;2024-03-17T04:57:45;11.65;;;4.22;;
79338;SDS011;74181;41.704;44.786;2024-03-17T05:00:11;10.65;;;8.10;;
79338;SDS011;74181;41.704;44.786;2024-03-17T05:02:40;8.60;;;7.65;;
79338;SDS011;74181;41.704;44.786;2024-03-17T05:05:06;9.38;;;6.80;;
79338;SDS011;74181;41.704;44.786;2024-03-17T05:07:34;7.03;;;3.50;;
79338;SDS011;74181;41.704;44.786;2024-03-17T05:10:00;6.70;;;3.30;;
79338;SDS011;74181;41.704;44.786;2024-03-17T05:12:27;6.25;;;3.17;;
79338;SDS011;74181;41.704;44.786;2024-03-17T05:14:53;7.95;;;5.68;;
79338;SDS011;74181;41.704;44.786;2024-03-17T05:17:20;8.20;;;6.80;;
79338;SDS011;74181;41.704;44.786;2024-03-17T05:19:46;7.63;;;6.83;;
79338;SDS011;74181;41.704;44.786;2024-03-17T05:22:12;7.60;;;6.80;;
79338;SDS011;74181;41.704;44.786;2024-03-17T05:24:38;6.90;;;5.97;;
79338;SDS011;74181;41.704;44.786;2024-03-17T05:27:07;7.03;;;2.97;;
79338;SDS011;74181;41.704;44.786;2024-03-17T05:29:35;5.45;;;3.10;;
79338;SDS011;74181;41.704;44.786;2024-03-17T05:32:04;7.10;;;3.20;;
79338;SDS011;74181;41.704;44.786;2024-03-17T05:34:31;6.90;;;3.22;;
79338;SDS011;74181;41.704;44.786;2024-03-17T05:36:58;7.32;;;3.10;;
79338;SDS011;74181;41.704;44.786;2024-03-17T05:39:25;5.88;;;2.65;;
79338;SDS011;74181;41.704;44.786;2024-03-17T05:41:51;6.28;;;2.80;;
79338;SDS011;74181;41.704;44.786;2024-03-17T05:44:17;5.43;;;2.73;;
79338;SDS011;74181;41.704;44.786;2024-03-17T05:46:44;6.00;;;2.67;;
79338;SDS011;74181;41.704;44.786;2024-03-17T05:49:10;5.90;;;2.63;;
79338;SDS011;74181;41.704;44.786;2024-03-17T05:51:36;5.53;;;2.60;;
79338;SDS011;74181;41.704;44.786;2024-03-17T05:54:02;5.85;;;2.83;;
79338;SDS011;74181;41.704;44.786;2024-03-17T05:56:29;5.00;;;2.80;;
79338;SDS011;74181;41.704;44.786;2024-03-17T05:58:55;5.88;;;3.00;;
79338;SDS011;74181;41.704;44.786;2024-03-17T06:01:21;6.13;;;2.78;;
79338;SDS011;74181;41.704;44.786;2024-03-17T06:03:48;5.50;;;2.60;;
79338;SDS011;74181;41.704;44.786;2024-03-17T06:06:15;6.05;;;3.00;;
79338;SDS011;74181;41.704;44.786;2024-03-17T06:08:41;7.33;;;2.90;;
79338;SDS011;74181;41.704;44.786;2024-03-17T06:11:07;6.70;;;2.97;;
79338;SDS011;74181;41.704;44.786;2024-03-17T06:13:34;7.22;;;2.80;;
79338;SDS011;74181;41.704;44.786;2024-03-17T06:16:03;6.43;;;3.08;;
79338;SDS011;74181;41.704;44.786;2024-03-17T06:18:31;6.13;;;3.13;;
79338;SDS011;74181;41.704;44.786;2024-03-17T06:20:58;6.80;;;3.00;;
79338;SDS011;74181;41.704;44.786;2024-03-17T06:23:25;6.60;;;2.60;;
79338;SDS011;74181;41.704;44.786;2024-03-17T06:25:54;6.50;;;2.90;;
79338;SDS011;74181;41.704;44.786;2024-03-17T06:28:24;7.90;;;3.10;;
79338;SDS011;74181;41.704;44.786;2024-03-17T06:30:58;6.10;;;2.95;;
79338;SDS011;74181;41.704;44.786;2024-03-17T06:33:30;5.67;;;2.60;;
79338;SDS011;74181;41.704;44.786;2024-03-17T06:35:58;6.32;;;2.80;;
79338;SDS011;74181;41.704;44.786;2024-03-17T06:38:31;5.60;;;2.65;;
79338;SDS011;74181;41.704;44.786;2024-03-17T06:40:57;6.07;;;2.97;;
79338;SDS011;74181;41.704;44.786;2024-03-17T06:43:24;5.78;;;2.70;;
79338;SDS011;74181;41.704;44.786;2024-03-17T06:45:53;6.80;;;2.80;;
79338;SDS011;74181;41.704;44.786;2024-03-17T06:48:24;5.95;;;3.08;;
79338;SDS011;74181;41.704;44.786;2024-03-17T06:50:51;6.35;;;2.80;;
79338;SDS011;74181;41.704;44.786;2024-03-17T06:53:18;5.50;;;2.80;;
79338;SDS011;74181;41.704;44.786;2024-03-17T06:55:52;5.80;;;2.88;;
79338;SDS011;74181;41.704;44.786;2024-03-17T06:58:25;5.67;;;2.60;;
79338;SDS011;74181;41.704;44.786;2024-03-17T07:00:54;6.68;;;3.17;;
79338;SDS011;74181;41.704;44.786;2024-03-17T07:03:28;6.57;;;3.10;;
79338;SDS011;74181;41.704;44.786;2024-03-17T07:05:56;6.43;;;2.83;;
79338;SDS011;74181;41.704;44.786;2024-03-17T07:08:23;6.43;;;2.90;;
79338;SDS011;74181;41.704;44.786;2024-03-17T07:10:56;6.27;;;2.80;;
79338;SDS011;74181;41.704;44.786;2024-03-17T07:13:37;6.95;;;3.10;;
79338;SDS011;74181;41.704;44.786;2024-03-17T07:16:07;6.38;;;2.80;;
79338;SDS011;74181;41.704;44.786;2024-03-17T07:18:34;8.50;;;3.10;;
79338;SDS011;74181;41.704;44.786;2024-03-17T07:21:01;6.30;;;2.80;;
79338;SDS011;74181;41.704;44.786;2024-03-17T07:23:29;6.23;;;2.67;;
79338;SDS011;74181;41.704;44.786;2024-03-17T07:25:59;5.20;;;2.72;;
79338;SDS011;74181;41.704;44.786;2024-03-17T07:28:27;5.50;;;2.90;;
79338;SDS011;74181;41.704;44.786;2024-03-17T07:30:59;5.60;;;2.45;;
79338;SDS011;74181;41.704;44.786;2024-03-17T07:33:28;5.63;;;2.80;;
79338;SDS011;74181;41.704;44.786;2024-03-17T07:35:55;6.77;;;2.80;;
79338;SDS011;74181;41.704;44.786;2024-03-17T07:38:26;5.53;;;2.45;;
79338;SDS011;74181;41.704;44.786;2024-03-17T07:40:57;6.60;;;2.70;;
79338;SDS011;74181;41.704;44.786;2024-03-17T07:43:25;6.40;;;2.90;;
79338;SDS011;74181;41.704;44.786;2024-03-17T07:46:01;5.82;;;2.60;;
79338;SDS011;74181;41.704;44.786;2024-03-17T07:48:45;5.30;;;2.37;;
79338;SDS011;74181;41.704;44.786;2024-03-17T07:51:14;5.28;;;2.22;;
79338;SDS011;74181;41.704;44.786;2024-03-17T07:53:45;5.38;;;2.63;;
79338;SDS011;74181;41.704;44.786;2024-03-17T07:56:14;5.75;;;2.47;;
79338;SDS011;74181;41.704;44.786;2024-03-17T07:58:41;5.13;;;2.70;;
79338;SDS011;74181;41.704;44.786;2024-03-17T08:01:09;5.63;;;2.13;;
79338;SDS011;74181;41.704;44.786;2024-03-17T08:03:37;8.27;;;3.45;;
79338;SDS011;74181;41.704;44.786;2024-03-17T08:06:04;5.63;;;3.20;;
79338;SDS011;74181;41.704;44.786;2024-03-17T08:08:32;5.35;;;2.33;;
79338;SDS011;74181;41.704;44.786;2024-03-17T08:10:58;7.25;;;2.85;;
79338;SDS011;74181;41.704;44.786;2024-03-17T08:13:25;4.33;;;2.20;;
79338;SDS011;74181;41.704;44.786;2024-03-17T08:16:01;4.75;;;2.20;;
79338;SDS011;74181;41.704;44.786;2024-03-17T08:18:29;7.38;;;2.40;;
79338;SDS011;74181;41.704;44.786;2024-03-17T08:20:56;4.88;;;2.28;;
79338;SDS011;74181;41.704;44.786;2024-03-17T08:23:22;6.13;;;2.60;;
79338;SDS011;74181;41.704;44.786;2024-03-17T08:25:52;4.97;;;2.50;;
79338;SDS011;74181;41.704;44.786;2024-03-17T08:28:20;7.47;;;3.30;;
79338;SDS011;74181;41.704;44.786;2024-03-17T08:30:53;5.32;;;2.53;;
79338;SDS011;74181;41.704;44.786;2024-03-17T08:33:27;10.38;;;5.03;;
79338;SDS011;74181;41.704;44.786;2024-03-17T08:36:02;5.82;;;2.65;;
79338;SDS011;74181;41.704;44.786;2024-03-17T08:38:32;7.97;;;2.73;;
79338;SDS011;74181;41.704;44.786;2024-03-17T08:41:02;6.25;;;2.90;;
79338;SDS011;74181;41.704;44.786;2024-03-17T08:43:32;6.63;;;2.63;;
79338;SDS011;74181;41.704;44.786;2024-03-17T08:46:06;5.22;;;2.75;;
79338;SDS011;74181;41.704;44.786;2024-03-17T08:48:34;4.82;;;2.47;;
79338;SDS011;74181;41.704;44.786;2024-03-17T08:51:02;6.17;;;2.50;;
79338;SDS011;74181;41.704;44.786;2024-03-17T08:53:29;7.85;;;2.70;;
79338;SDS011;74181;41.704;44.786;2024-03-17T08:55:56;5.22;;;2.28;;
79338;SDS011;74181;41.704;44.786;2024-03-17T08:58:23;5.30;;;2.63;;
79338;SDS011;74181;41.704;44.786;2024-03-17T09:00:49;5.53;;;2.75;;
79338;SDS011;74181;41.704;44.786;2024-03-17T09:03:17;8.27;;;3.10;;
79338;SDS011;74181;41.704;44.786;2024-03-17T09:05:44;6.55;;;3.10;;
79338;SDS011;74181;41.704;44.786;2024-03-17T09:08:15;7.00;;;3.00;;
79338;SDS011;74181;41.704;44.786;2024-03-17T09:10:47;5.88;;;2.80;;
79338;SDS011;74181;41.704;44.786;2024-03-17T09:13:15;6.25;;;3.25;;
79338;SDS011;74181;41.704;44.786;2024-03-17T09:18:36;7.05;;;3.00;;
79338;SDS011;74181;41.704;44.786;2024-03-17T09:21:04;7.50;;;3.30;;
79338;SDS011;74181;41.704;44.786;2024-03-17T09:23:31;5.85;;;2.83;;
79338;SDS011;74181;41.704;44.786;2024-03-17T09:26:00;8.05;;;3.15;;
79338;SDS011;74181;41.704;44.786;2024-03-17T09:28:31;6.17;;;3.10;;
79338;SDS011;74181;41.704;44.786;2024-03-17T09:30:58;6.65;;;2.80;;
79338;SDS011;74181;41.704;44.786;2024-03-17T09:33:25;7.32;;;3.00;;
79338;SDS011;74181;41.704;44.786;2024-03-17T09:35:53;6.55;;;3.10;;
79338;SDS011;74181;41.704;44.786;2024-03-17T09:38:23;5.70;;;3.00;;
79338;SDS011;74181;41.704;44.786;2024-03-17T09:40:50;6.97;;;3.10;;
79338;SDS011;74181;41.704;44.786;2024-03-17T09:43:19;6.30;;;2.90;;
79338;SDS011;74181;41.704;44.786;2024-03-17T09:45:46;5.97;;;3.22;;
79338;SDS011;74181;41.704;44.786;2024-03-17T09:48:14;7.70;;;3.70;;
79338;SDS011;74181;41.704;44.786;2024-03-17T09:50:45;6.80;;;3.65;;
79338;SDS011;74181;41.704;44.786;2024-03-17T09:53:24;8.50;;;3.50;;
79338;SDS011;74181;41.704;44.786;2024-03-17T09:55:52;8.18;;;3.83;;
79338;SDS011;74181;41.704;44.786;2024-03-17T09:58:30;7.65;;;3.80;;
79338;SDS011;74181;41.704;44.786;2024-03-17T10:00:56;7.55;;;3.10;;
79338;SDS011;74181;41.704;44.786;2024-03-17T10:06:44;7.27;;;3.27;;
79338;SDS011;74181;41.704;44.786;2024-03-17T10:09:14;7.45;;;2.70;;
79338;SDS011;74181;41.704;44.786;2024-03-17T10:11:47;7.88;;;3.25;;
79338;SDS011;74181;41.704;44.786;2024-03-17T10:14:15;5.93;;;2.90;;
79338;SDS011;74181;41.704;44.786;2024-03-17T10:16:43;5.28;;;2.72;;
79338;SDS011;74181;41.704;44.786;2024-03-17T10:19:16;5.50;;;2.70;;
79338;SDS011;74181;41.704;44.786;2024-03-17T10:21:46;7.13;;;2.88;;
79338;SDS011;74181;41.704;44.786;2024-03-17T10:24:24;5.88;;;2.70;;
79338;SDS011;74181;41.704;44.786;2024-03-17T10:26:54;7.57;;;2.95;;
79338;SDS011;74181;41.704;44.786;2024-03-17T10:29:23;4.80;;;2.60;;
79338;SDS011;74181;41.704;44.786;2024-03-17T10:32:00;5.10;;;2.70;;
79338;SDS011;74181;41.704;44.786;2024-03-17T10:34:29;4.63;;;2.60;;
79338;SDS011;74181;41.704;44.786;2024-03-17T10:37:06;7.03;;;2.80;;
79338;SDS011;74181;41.704;44.786;2024-03-17T10:39:37;7.07;;;2.90;;
79338;SDS011;74181;41.704;44.786;2024-03-17T10:42:04;5.50;;;2.63;;
79338;SDS011;74181;41.704;44.786;2024-03-17T10:44:32;5.97;;;2.93;;
79338;SDS011;74181;41.704;44.786;2024-03-17T10:47:01;4.95;;;2.63;;
79338;SDS011;74181;41.704;44.786;2024-03-17T10:49:29;5.85;;;2.80;;
79338;SDS011;74181;41.704;44.786;2024-03-17T10:51:58;6.10;;;2.80;;
79338;SDS011;74181;41.704;44.786;2024-03-17T10:54:26;5.35;;;2.70;;
79338;SDS011;74181;41.704;44.786;2024-03-17T10:56:55;7.40;;;2.80;;
79338;SDS011;74181;41.704;44.786;2024-03-17T10:59:41;6.93;;;2.83;;
79338;SDS011;74181;41.704;44.786;2024-03-17T11:02:22;5.43;;;2.65;;
79338;SDS011;74181;41.704;44.786;2024-03-17T11:04:59;7.75;;;2.70;;
79338;SDS011;74181;41.704;44.786;2024-03-17T11:07:30;5.30;;;2.47;;
79338;SDS011;74181;41.704;44.786;2024-03-17T11:09:59;6.83;;;3.10;;
79338;SDS011;74181;41.704;44.786;2024-03-17T11:12:42;4.88;;;2.63;;
79338;SDS011;74181;41.704;44.786;2024-03-17T11:17:46;5.85;;;2.95;;
79338;SDS011;74181;41.704;44.786;2024-03-17T11:20:16;5.97;;;2.63;;
79338;SDS011;74181;41.704;44.786;2024-03-17T11:22:44;6.87;;;3.10;;
79338;SDS011;74181;41.704;44.786;2024-03-17T11:27:53;5.38;;;2.60;;
79338;SDS011;74181;41.704;44.786;2024-03-17T11:38:53;6.20;;;3.00;;
79338;SDS011;74181;41.704;44.786;2024-03-17T11:46:52;4.75;;;2.45;;
79338;SDS011;74181;41.704;44.786;2024-03-17T11:49:21;5.63;;;2.77;;
79338;SDS011;74181;41.704;44.786;2024-03-17T11:51:50;6.60;;;2.78;;
79338;SDS011;74181;41.704;44.786;2024-03-17T11:54:18;7.15;;;2.70;;
79338;SDS011;74181;41.704;44.786;2024-03-17T11:56:47;4.95;;;2.60;;
79338;SDS011;74181;41.704;44.786;2024-03-17T11:59:15;4.32;;;2.40;;
79338;SDS011;74181;41.704;44.786;2024-03-17T12:01:46;5.90;;;2.60;;
79338;SDS011;74181;41.704;44.786;2024-03-17T12:04:16;5.47;;;2.65;;
79338;SDS011;74181;41.704;44.786;2024-03-17T12:06:45;6.05;;;3.00;;
79338;SDS011;74181;41.704;44.786;2024-03-17T12:11:48;5.82;;;2.75;;
79338;SDS011;74181;41.704;44.786;2024-03-17T12:14:38;4.47;;;2.40;;
79338;SDS011;74181;41.704;44.786;2024-03-17T12:17:06;7.68;;;2.90;;
79338;SDS011;74181;41.704;44.786;2024-03-17T12:19:34;7.43;;;2.90;;
79338;SDS011;74181;41.704;44.786;2024-03-17T12:22:01;6.32;;;2.78;;
79338;SDS011;74181;41.704;44.786;2024-03-17T12:24:28;6.05;;;2.58;;
79338;SDS011;74181;41.704;44.786;2024-03-17T12:27:04;6.43;;;2.50;;
79338;SDS011;74181;41.704;44.786;2024-03-17T12:29:32;5.47;;;2.55;;
79338;SDS011;74181;41.704;44.786;2024-03-17T12:32:05;7.32;;;2.90;;
79338;SDS011;74181;41.704;44.786;2024-03-17T12:34:36;4.75;;;2.35;;
79338;SDS011;74181;41.704;44.786;2024-03-17T12:37:03;4.85;;;2.50;;
79338;SDS011;74181;41.704;44.786;2024-03-17T12:39:30;6.17;;;2.63;;
79338;SDS011;74181;41.704;44.786;2024-03-17T12:42:03;6.70;;;2.63;;
79338;SDS011;74181;41.704;44.786;2024-03-17T12:44:35;6.50;;;2.90;;
79338;SDS011;74181;41.704;44.786;2024-03-17T12:49:45;6.82;;;2.67;;
79338;SDS011;74181;41.704;44.786;2024-03-17T12:52:19;5.43;;;2.70;;
79338;SDS011;74181;41.704;44.786;2024-03-17T12:55:02;8.13;;;3.03;;
79338;SDS011;74181;41.704;44.786;2024-03-17T12:57:52;6.32;;;2.70;;
79338;SDS011;74181;41.704;44.786;2024-03-17T13:00:37;5.32;;;2.78;;
79338;SDS011;74181;41.704;44.786;2024-03-17T13:03:04;9.13;;;4.28;;
79338;SDS011;74181;41.704;44.786;2024-03-17T13:05:31;6.33;;;2.83;;
79338;SDS011;74181;41.704;44.786;2024-03-17T13:07:58;5.78;;;3.00;;
79338;SDS011;74181;41.704;44.786;2024-03-17T13:10:25;7.25;;;2.72;;
79338;SDS011;74181;41.704;44.786;2024-03-17T13:13:01;6.32;;;2.90;;
79338;SDS011;74181;41.704;44.786;2024-03-17T13:15:29;5.95;;;2.60;;
79338;SDS011;74181;41.704;44.786;2024-03-17T13:18:02;5.67;;;2.70;;
79338;SDS011;74181;41.704;44.786;2024-03-17T13:20:30;4.82;;;2.40;;
79338;SDS011;74181;41.704;44.786;2024-03-17T13:22:57;5.85;;;2.75;;
79338;SDS011;74181;41.704;44.786;2024-03-17T13:25:24;5.95;;;2.33;;
79338;SDS011;74181;41.704;44.786;2024-03-17T13:27:53;5.82;;;2.90;;
79338;SDS011;74181;41.704;44.786;2024-03-17T13:30:20;5.90;;;2.60;;
79338;SDS011;74181;41.704;44.786;2024-03-17T13:32:52;6.57;;;2.60;;
79338;SDS011;74181;41.704;44.786;2024-03-17T13:35:27;7.63;;;3.03;;
79338;SDS011;74181;41.704;44.786;2024-03-17T13:37:57;7.07;;;2.88;;
79338;SDS011;74181;41.704;44.786;2024-03-17T13:40:28;6.10;;;2.80;;
79338;SDS011;74181;41.704;44.786;2024-03-17T13:42:55;8.27;;;3.70;;
79338;SDS011;74181;41.704;44.786;2024-03-17T13:45:22;7.28;;;3.10;;
79338;SDS011;74181;41.704;44.786;2024-03-17T13:48:00;10.70;;;3.30;;
79338;SDS011;74181;41.704;44.786;2024-03-17T13:50:30;7.20;;;3.70;;
79338;SDS011;74181;41.704;44.786;2024-03-17T13:52:57;7.68;;;3.95;;
79338;SDS011;74181;41.704;44.786;2024-03-17T13:55:24;6.13;;;3.10;;
79338;SDS011;74181;41.704;44.786;2024-03-17T13:57:52;7.63;;;3.40;;
79338;SDS011;74181;41.704;44.786;2024-03-17T14:00:23;6.53;;;3.28;;
79338;SDS011;74181;41.704;44.786;2024-03-17T14:02:51;5.88;;;3.00;;
79338;SDS011;74181;41.704;44.786;2024-03-17T14:05:22;6.75;;;3.00;;
79338;SDS011;74181;41.704;44.786;2024-03-17T14:07:49;16.53;;;5.53;;
79338;SDS011;74181;41.704;44.786;2024-03-17T14:10:17;11.77;;;4.50;;
79338;SDS011;74181;41.704;44.786;2024-03-17T14:12:45;7.72;;;4.22;;
79338;SDS011;74181;41.704;44.786;2024-03-17T14:15:12;7.80;;;3.63;;
79338;SDS011;74181;41.704;44.786;2024-03-17T14:17:40;9.40;;;4.38;;
79338;SDS011;74181;41.704;44.786;2024-03-17T14:20:08;6.80;;;3.70;;
79338;SDS011;74181;41.704;44.786;2024-03-17T14:22:42;8.82;;;3.75;;
79338;SDS011;74181;41.704;44.786;2024-03-17T14:25:14;7.05;;;3.63;;
79338;SDS011;74181;41.704;44.786;2024-03-17T14:27:42;6.10;;;3.25;;
79338;SDS011;74181;41.704;44.786;2024-03-17T14:30:08;7.57;;;3.35;;
79338;SDS011;74181;41.704;44.786;2024-03-17T14:32:39;8.00;;;3.50;;
79338;SDS011;74181;41.704;44.786;2024-03-17T14:35:05;6.47;;;3.00;;
79338;SDS011;74181;41.704;44.786;2024-03-17T14:37:33;8.18;;;4.00;;
79338;SDS011;74181;41.704;44.786;2024-03-17T14:39:59;6.90;;;3.83;;
79338;SDS011;74181;41.704;44.786;2024-03-17T14:42:25;10.52;;;4.05;;
79338;SDS011;74181;41.704;44.786;2024-03-17T14:44:51;8.87;;;5.40;;
79338;SDS011;74181;41.704;44.786;2024-03-17T14:47:17;9.98;;;5.35;;
79338;SDS011;74181;41.704;44.786;2024-03-17T14:49:43;7.70;;;3.80;;
79338;SDS011;74181;41.704;44.786;2024-03-17T14:52:11;7.85;;;3.70;;
79338;SDS011;74181;41.704;44.786;2024-03-17T14:54:37;8.13;;;4.10;;
79338;SDS011;74181;41.704;44.786;2024-03-17T14:57:03;8.97;;;4.07;;
79338;SDS011;74181;41.704;44.786;2024-03-17T14:59:29;8.07;;;3.47;;
79338;SDS011;74181;41.704;44.786;2024-03-17T15:01:56;8.02;;;3.90;;
79338;SDS011;74181;41.704;44.786;2024-03-17T15:04:23;7.72;;;3.78;;
79338;SDS011;74181;41.704;44.786;2024-03-17T15:06:53;7.38;;;3.70;;
79338;SDS011;74181;41.704;44.786;2024-03-17T15:09:19;6.43;;;3.10;;
79338;SDS011;74181;41.704;44.786;2024-03-17T15:11:47;7.53;;;3.20;;